South Reno (Wolf Run), Nevada Weather observations

Data are for observation ending at time listed.
 Day   Time    Ave.   Ave.  Ave.  Vector   Max.   Stn.    Total    Solar   Ave.  
  of    of     Air    Rel.  Wind   Wind    Wind   Baro.  Precip.   Rad.    Soil  
Year   Day     Temp.  Hum.  Speed  Dir.    Gust   Pres.                    Temp. 
2016   (PST)    F      %     mph   deg.    mph     mb.     in.     W/m2     F   
------------------------------------------------------------------------------
 124    8:20   58.4    47    1.6    39      3.2  99999.0    0.00     597    54.2
 124    8:30   58.9    46    1.5    81      6.0  99999.0    0.00     594    54.2
 124    8:40   59.2    47    2.9    82      5.8  99999.0    0.00     684    54.2
 124    8:50   60.0    44    1.4    40      3.2  99999.0    0.00     729    54.2
 124    9:00   61.1    43    1.1    80      3.5  99999.0    0.00     739    54.3
 124    9:10   62.2    43    2.1    62      4.1  99999.0    0.00     781    54.4
 124    9:20   61.9    43    2.3    80      4.7  99999.0    0.00     800    54.4
 124    9:30   62.9    41    1.3    44      3.7  99999.0    0.00     741    54.5
 124    9:40   64.0    40    1.5    73      5.8  99999.0    0.00     824    54.6
 124    9:50   64.1    39    2.5    50      4.7  99999.0    0.00     878    54.7
 124   10:00   65.0    38    1.6    57      5.0  99999.0    0.00     891    54.8
 124   10:10   66.2    36    2.2    79      8.4  99999.0    0.00     885    55.0
 124   10:20   65.1    36    3.7   100      7.5  99999.0    0.00     914    55.1
 124   10:30   66.9    34    3.1    46      7.5  99999.0    0.00     932    55.2
 124   10:40   66.1    34    5.1    92      9.6  99999.0    0.00     870    55.4
 124   10:50   66.3    33    4.7   122      8.7  99999.0    0.00     822    55.5
 124   11:00   66.7    32    5.3   104     10.9  99999.0    0.00     847    55.7
 124   11:10   66.3    31    4.3   108      9.5  99999.0    0.00     647    55.9
 124   11:20   67.0    30    5.6   116     11.5  99999.0    0.00     899    56.1
 124   11:30   66.8    28    4.1   147      9.6  99999.0    0.00     490    56.2
 124   11:40   67.7    26    3.6   174      8.6  99999.0    0.00     871    56.4
 124   11:50   67.8    24    3.2   158      8.9  99999.0    0.00     640    56.6
 124   12:00   66.9    25    4.2   174      8.0  99999.0    0.00     438    56.8
 124   12:10   66.9    24    4.0   226      9.3  99999.0    0.00     498    57.0
 124   12:20   66.9    24    4.7   216      9.1  99999.0    0.00     526    57.2
 124   12:30   67.8    24    4.7   214      9.1  99999.0    0.00     688    57.3
 124   12:40   67.1    24    3.3   217      7.4  99999.0    0.00     477    57.5
 124   12:50   67.3    24    3.9   225      9.1  99999.0    0.00     506    57.7
 124   13:00   67.4    24    4.7   216      9.1  99999.0    0.00     629    57.8
 124   13:10   68.9    25    2.2   228      6.2  99999.0    0.00     684    57.9
 124   13:20   68.1    24    3.3   150      8.0  99999.0    0.00     584    58.1
 124   13:30   68.5    24    3.3   156      6.5  99999.0    0.00     607    58.2
 124   13:40   68.9    23    2.4   204      6.7  99999.0    0.00     787    58.3
 124   13:50   69.0    24    2.8   224      7.3  99999.0    0.00     884    58.4
 124   14:00   71.4    24    2.0   282      8.4  99999.0    0.00     979    58.5
 124   14:10   70.3    24    2.9   237      7.4  99999.0    0.00     808    58.7
 124   14:20   71.3    25    2.2   247      6.1  99999.0    0.00     870    58.8
 124   14:30   71.3    23    3.7   241      8.0  99999.0    0.00    1019    58.9
 124   14:40   70.9    23    3.2   251      7.2  99999.0    0.00     871    59.0
 124   14:50   71.3    22    5.2   178     13.6  99999.0    0.00     825    59.2
 124   15:00   69.8    23    4.0   130      7.5  99999.0    0.00     584    59.3
 124   15:10   70.2    23    3.6   116      9.0  99999.0    0.00     402    59.5
 124   15:20   69.7    22    2.9   136      6.4  99999.0    0.00     474    59.6
 124   15:30   69.6    23    2.7   111      6.4  99999.0    0.00     375    59.8
 124   15:40   69.3    23    4.6   126      9.1  99999.0    0.00     358    59.9
 124   15:50   69.3    23    2.8   112      7.5  99999.0    0.00     365    60.1
 124   16:00   68.9    23    2.9   112      7.5  99999.0    0.00     273    60.2
 124   16:10   69.0    22    0.4    82      2.8  99999.0    0.00     197    60.3
 124   16:20   69.0    24    2.4   104      4.5  99999.0    0.00     201    60.4
 124   16:30   68.3    23    2.0   124      4.5  99999.0    0.00     140    60.5
 124   16:40   68.0    24    1.9    71      3.4  99999.0    0.00     101    60.6
 124   16:50   67.4    25    4.4    85      7.2  99999.0    0.00      59    60.7
 124   17:00   67.1    25    5.3   104      7.8  99999.0    0.00      48    60.7
 124   17:10   66.7    25    7.6   122     16.7  99999.0    0.00      59    60.8
 124   17:20   65.6    29    5.4   135     11.5  99999.0    0.00      68    60.8
 124   17:30   65.3    29    3.4   186      7.2  99999.0    0.00      75    60.9
 124   17:40   65.0    30    2.8   200      5.5  99999.0    0.00      73    60.9
 124   17:50   64.3    34    4.1   130     10.0  99999.0    0.00      60    60.9
 124   18:00   63.3    36    5.5   126      9.0  99999.0    0.00      49    60.9
 124   18:10   62.7    37    4.8   117      7.5  99999.0    0.00      36    60.9
 124   18:20   62.3    38    2.9   137      5.6  99999.0    0.00      33    60.9
 124   18:30   62.3    38    2.6   145      4.6  99999.0    0.00      32    60.9
 124   18:40   62.2    38    2.9   148      6.5  99999.0    0.00      22    60.8
 124   18:50   61.1    41    7.3    99     11.3  99999.0    0.00       8    60.8
 124   19:00   60.5    41    4.6    90      9.9  99999.0    0.00       2    60.7
 124   19:10   60.2    42    3.2   104      5.3  99999.0    0.00       1    60.7
 124   19:20   59.8    43    2.3    71      4.4  99999.0    0.00       0    60.7
 124   19:30   59.7    42    2.4    49      5.7  99999.0    0.00       0    60.6
 124   19:40   59.6    42    2.2    17      5.8  99999.0    0.00       0    60.5
 124   19:50   59.3    42    2.6    17      5.6  99999.0    0.00       0    60.5
 124   20:00   59.0    44    1.6   359      3.2  99999.0    0.00       0    60.4
 124   20:10   58.4    45    2.3     5      4.2  99999.0    0.00       0    60.4
 124   20:20   58.1    46    0.9     1      2.9  99999.0    0.00       0    60.3
 124   20:30   57.4    49    0.2   247      1.8  99999.0    0.00       0    60.3
 124   20:40   57.1    48    0.3   187      1.6  99999.0    0.00       0    60.2
 124   20:50   56.9    49    0.3   164      1.4  99999.0    0.00       0    60.1
 124   21:00   55.1    54    1.7   224      2.7  99999.0    0.00       0    60.1
 124   21:10   55.0    54    2.5   214      3.4  99999.0    0.00       0    60.0
 124   21:20   55.3    53    2.1   196      3.1  99999.0    0.00       0    59.9
 124   21:30   55.3    52    2.1   196      2.9  99999.0    0.00       0    59.9
 124   21:40   55.0    53    2.1   205      2.8  99999.0    0.00       0    59.8
 124   21:50   54.7    54    2.8   222      5.6  99999.0    0.00       0    59.7
 124   22:00   53.4    57    3.1   222      5.2  99999.0    0.00       0    59.6
 124   22:10   54.2    54    2.7   216      4.2  99999.0    0.00       0    59.6
 124   22:20   54.4    53    3.1   217      4.2  99999.0    0.00       0    59.5
 124   22:30   54.1    54    3.0   217      4.0  99999.0    0.00       0    59.4
 124   22:40   54.3    54    3.2   216      4.2  99999.0    0.00       0    59.4
 124   22:50   54.7    52    2.4   211      3.7  99999.0    0.00       0    59.3
 124   23:00   54.7    52    1.9   184      3.9  99999.0    0.00       0    59.2
 124   23:10   53.6    55    1.4   196      2.4  99999.0    0.00       0    59.1
 124   23:20   51.9    59    2.6   222      4.9  99999.0    0.00       0    59.1
 124   23:30   52.8    56    1.9   178      3.1  99999.0    0.00       0    59.0
 124   23:40   51.3    60    2.4   223      3.1  99999.0    0.00       0    58.9
 124   23:50   48.8    69    2.3   224      3.5  99999.0    0.00       0    58.8
 125    0:00   48.6    67    2.2   223      3.1  99999.0    0.00       0    58.8
 125    0:10   48.7    66    2.3   233      4.5  99999.0    0.00       0    58.7
 125    0:20   48.7    65    3.1   230      5.0  99999.0    0.00       0    58.6
 125    0:30   48.9    62    3.1   230      5.0  99999.0    0.00       0    58.5
 125    0:40   48.7    62    2.7   230      4.5  99999.0    0.00       0    58.4
 125    0:50   48.5    63    2.2   232      3.7  99999.0    0.00       0    58.3
 125    1:00   48.9    63    2.0   231      2.7  99999.0    0.00       0    58.2
 125    1:10   48.8    64    2.0   235      3.1  99999.0    0.00       0    58.1
 125    1:20   49.1    63    2.8   239      5.0  99999.0    0.00       0    58.0
 125    1:30   49.5    61    2.6   239      5.3  99999.0    0.00       0    57.9
 125    1:40   48.9    62    3.2   248      6.9  99999.0    0.00       0    57.8
 125    1:50   48.6    62    2.3   236      4.5  99999.0    0.00       0    57.7
 125    2:00   48.9    62    3.5   238      5.6  99999.0    0.00       0    57.6
 125    2:10   48.9    62    3.1   244      5.4  99999.0    0.00       0    57.5
 125    2:20   49.0    62    2.4   241      4.7  99999.0    0.00       0    57.4
 125    2:30   49.4    61    2.7   244      5.3  99999.0    0.00       0    57.4
 125    2:40   48.9    62    2.4   233      5.5  99999.0    0.00       0    57.3
 125    2:50   48.3    64    2.4   237      5.3  99999.0    0.00       0    57.2
 125    3:00   48.4    63    3.1   243      6.1  99999.0    0.00       0    57.1
 125    3:10   48.6    62    2.3   241      5.2  99999.0    0.00       0    57.1
 125    3:20   48.2    63    2.6   239      5.4  99999.0    0.00       0    57.0
 125    3:30   48.4    62    1.9   237      3.3  99999.0    0.00       0    56.9
 125    3:40   48.8    62    0.7   286      2.3  99999.0    0.00       0    56.9
 125    3:50   48.6    62    0.7   318      2.6  99999.0    0.00       0    56.8
 125    4:00   49.0    62    2.0   230      4.4  99999.0    0.00       0    56.7
 125    4:10   49.2    61    2.0   246      4.1  99999.0    0.00       0    56.7
 125    4:20   48.7    62    2.6   240      5.5  99999.0    0.00       0    56.6
 125    4:30   48.9    62    2.7   238      5.0  99999.0    0.00       0    56.6
 125    4:40   48.7    63    1.1   245      4.2  99999.0    0.00       0    56.5
 125    4:50   48.3    64    0.4    66      1.7  99999.0    0.00       0    56.4
 125    5:00   47.8    66    0.2   229      1.5  99999.0    0.00       1    56.4
 125    5:10   48.0    65    2.0   234      4.0  99999.0    0.00       4    56.3
 125    5:20   47.9    66    1.5   234      3.7  99999.0    0.00      13    56.2
 125    5:30   48.1    67    1.1   244      4.2  99999.0    0.00      24    56.2
 125    5:40   48.7    65    1.2   235      2.3  99999.0    0.00      30    56.1
 125    5:50   49.5    64    0.2    90      1.3  99999.0    0.00      37    56.1
 125    6:00   49.5    64    0.0     0      0.0  99999.0    0.00      55    56.0
 125    6:10   49.2    66    0.8    39      1.9  99999.0    0.00      65    56.0
 125    6:20   49.4    68    0.0   342      1.1  99999.0    0.00      77    55.9
 125    6:30   49.9    67    0.0     0      0.0  99999.0    0.00      80    55.9
 125    6:40   50.4    67    0.0     0      0.0  99999.0    0.00     114    55.8
 125    6:50   51.2    66    0.0     0      0.0  99999.0    0.00     174    55.8
 125    7:00   52.5    64    1.4    89      5.1  99999.0    0.00     258    55.8
 125    7:10   52.7    62    0.6    82      3.0  99999.0    0.00     265    55.7
 125    7:20   53.0    62    0.7    86      2.0  99999.0    0.00     260    55.7
 125    7:30   53.6    60    0.6    28      1.8  99999.0    0.00     237    55.7
 125    7:40   53.6    62    0.5   355      1.7  99999.0    0.00     262    55.7
 125    7:50   54.0    61    0.6   352      1.8  99999.0    0.00     162    55.7
 125    8:00   54.0    61    0.7   340      1.9  99999.0    0.00     194    55.7
 125    8:10   54.9    58    0.3   356      1.4  99999.0    0.00     228    55.7

Return to South Reno, Nevada graphs page.


Western Regional Climate Center,wrcc@dri.edu